Time;durP1;ratioP1;P1;durP2;ratioP2;P2;SDS_P1;SDS_P2;PMS_P1;PMS_P2;Temp;Humidity;BMP_temperature;BMP_pressure;BME280_temperature;BME280_humidity;BME280_pressure;Samples;Min_cycle;Max_cycle;Signal;HPM_P1;HPM_P2
2023/01/04 00:01:15;;;;;;;15.50;7.20;;;;;;;5.00;100.00;100012.16;4423583;32;20094;-72
2023/01/04 00:03:43;;;;;;;15.63;7.22;;;;;;;4.97;100.00;100015.75;4422883;32;20102;-72
2023/01/04 00:06:12;;;;;;;16.87;7.93;;;;;;;4.90;100.00;100013.50;4423804;32;20106;-72
2023/01/04 00:08:39;;;;;;;15.05;6.35;;;;;;;4.91;100.00;100017.78;4424553;32;20157;-72
2023/01/04 00:11:10;;;;;;;15.32;7.32;;;;;;;4.82;100.00;100032.03;4439054;32;20561;-72
2023/01/04 00:13:38;;;;;;;12.57;7.07;;;;;;;4.86;100.00;100032.72;4425063;32;20094;-72
2023/01/04 00:16:17;;;;;;;13.70;6.65;;;;;;;4.88;100.00;100044.72;4438910;32;20159;-73
2023/01/04 00:18:45;;;;;;;12.50;6.60;;;;;;;4.90;100.00;100039.47;4438884;32;20073;-73
2023/01/04 00:21:17;;;;;;;15.30;6.85;;;;;;;4.95;100.00;100042.69;4434841;32;20447;-72
2023/01/04 00:23:48;;;;;;;13.27;6.70;;;;;;;4.90;100.00;100048.09;4423276;32;20160;-72
2023/01/04 00:26:18;;;;;;;12.95;6.18;;;;;;;4.81;100.00;100038.13;4423199;32;20177;-73
2023/01/04 00:28:47;;;;;;;12.98;7.12;;;;;;;4.76;100.00;100042.69;4423503;32;20077;-72
2023/01/04 00:31:20;;;;;;;;;;;;;;;4.70;100.00;100037.78;4423835;32;20090;-72
2023/01/04 00:33:48;;;;;;;17.77;8.05;;;;;;;4.65;100.00;100043.16;4423599;32;20050;-73
2023/01/04 00:36:16;;;;;;;15.38;5.95;;;;;;;4.55;100.00;100039.28;4423297;32;20161;-72
2023/01/04 00:38:43;;;;;;;14.18;6.37;;;;;;;4.47;100.00;100043.97;4423490;32;20472;-73
2023/01/04 00:41:11;;;;;;;11.95;6.00;;;;;;;4.44;100.00;100031.97;4423286;32;20094;-72
2023/01/04 00:44:01;;;;;;;11.32;5.85;;;;;;;4.42;100.00;100041.56;4412001;32;20094;-72
2023/01/04 00:46:30;;;;;;;10.85;5.20;;;;;;;4.47;100.00;100033.56;4423658;32;20120;-72
2023/01/04 00:48:57;;;;;;;11.35;4.07;;;;;;;4.55;100.00;100036.69;4423270;32;20087;-72
2023/01/04 00:51:28;;;;;;;7.97;4.68;;;;;;;4.56;100.00;100038.38;4423184;32;20098;-72
2023/01/04 00:53:57;;;;;;;8.38;4.35;;;;;;;4.61;100.00;100031.22;4423344;32;20106;-73
2023/01/04 00:56:24;;;;;;;9.48;4.15;;;;;;;4.65;100.00;100031.94;4422975;32;20163;-72
2023/01/04 00:58:55;;;;;;;10.48;4.80;;;;;;;4.59;100.00;100033.06;4423465;32;20160;-72
2023/01/04 01:01:24;;;;;;;7.60;4.10;;;;;;;4.56;100.00;100030.59;4423114;32;20089;-72
2023/01/04 01:03:56;;;;;;;10.65;3.95;;;;;;;4.59;100.00;100039.09;4423404;32;20094;-73
2023/01/04 01:06:24;;;;;;;10.43;5.20;;;;;;;4.61;100.00;100041.63;4423166;32;20097;-72
2023/01/04 01:08:51;;;;;;;8.50;4.90;;;;;;;4.67;100.00;100043.94;4425426;32;20141;-72
2023/01/04 01:11:20;;;;;;;10.27;4.28;;;;;;;4.65;100.00;100048.38;4438536;32;20508;-72
2023/01/04 01:13:47;;;;;;;7.15;4.40;;;;;;;4.58;100.00;100054.72;4438887;32;20089;-73
2023/01/04 01:16:17;;;;;;;11.95;4.90;;;;;;;4.52;100.00;100047.22;4438222;32;20442;-72
2023/01/04 01:19:04;;;;;;;9.15;4.90;;;;;;;4.41;100.00;100047.69;4438525;32;20089;-73
2023/01/04 01:21:31;;;;;;;12.02;5.30;;;;;;;4.32;100.00;100041.13;4432337;32;20098;-72
2023/01/04 01:23:58;;;;;;;8.55;4.47;;;;;;;4.20;100.00;100046.84;4422938;32;20125;-72
2023/01/04 01:26:26;;;;;;;10.43;4.43;;;;;;;4.14;100.00;100045.34;4422869;32;20115;-72
2023/01/04 01:28:53;;;;;;;9.88;5.12;;;;;;;4.01;100.00;100052.81;4423195;32;20455;-72
2023/01/04 01:31:23;;;;;;;10.88;5.12;;;;;;;4.01;100.00;100047.63;4423037;32;20109;-72
2023/01/04 01:33:52;;;;;;;10.73;4.95;;;;;;;3.96;100.00;100056.50;4423221;32;20151;-72
2023/01/04 01:36:21;;;;;;;10.93;5.75;;;;;;;3.95;100.00;100054.78;4422859;32;20168;-72
2023/01/04 01:38:48;;;;;;;12.55;5.40;;;;;;;3.93;100.00;100056.63;4423035;32;20094;-72
2023/01/04 01:41:22;;;;;;;9.63;5.30;;;;;;;3.97;100.00;100045.22;4423006;32;20545;-72
2023/01/04 01:43:52;;;;;;;8.43;5.28;;;;;;;3.89;100.00;100048.09;4423354;32;20155;-72
2023/01/04 01:46:41;;;;;;;13.90;5.32;;;;;;;3.85;100.00;100046.56;4422910;32;20112;-72
2023/01/04 01:49:13;;;;;;;11.93;5.03;;;;;;;3.84;100.00;100040.50;4422878;32;20069;-72
2023/01/04 01:51:41;;;;;;;9.55;5.30;;;;;;;3.88;100.00;100042.09;4422788;32;20086;-72
2023/01/04 01:54:12;;;;;;;12.50;5.57;;;;;;;3.87;100.00;100044.75;4422890;32;20093;-72
2023/01/04 01:56:41;;;;;;;10.52;5.15;;;;;;;3.88;100.00;100049.88;4422656;32;20094;-72
2023/01/04 01:59:10;;;;;;;9.77;4.95;;;;;;;3.83;100.00;100041.44;4409018;32;20122;-72
2023/01/04 02:01:37;;;;;;;11.55;5.87;;;;;;;3.79;100.00;100047.66;4408863;32;20121;-72
2023/01/04 02:04:06;;;;;;;11.50;6.00;;;;;;;3.80;100.00;100038.97;4409021;32;20128;-72
2023/01/04 02:06:38;;;;;;;11.88;5.78;;;;;;;3.82;100.00;100051.88;4422658;32;20094;-72
2023/01/04 02:09:05;;;;;;;11.90;5.12;;;;;;;3.77;100.00;100049.47;4426147;32;20077;-73
2023/01/04 02:11:32;;;;;;;11.55;6.00;;;;;;;3.75;100.00;100053.84;4438199;32;20127;-72
2023/01/04 02:16:55;;;;;;;9.90;5.32;;;;;;;3.77;100.00;100040.84;4437902;32;20081;-72
2023/01/04 02:19:47;;;;;;;10.75;5.18;;;;;;;3.80;100.00;100043.28;4437856;32;20103;-72
2023/01/04 02:22:33;;;;;;;10.50;5.35;;;;;;;3.83;100.00;100050.94;4413229;32;20570;-72
2023/01/04 02:25:06;;;;;;;10.82;5.43;;;;;;;3.83;100.00;100043.16;4422419;32;20094;-72
2023/01/04 02:27:45;;;;;;;10.60;4.65;;;;;;;3.89;100.00;100050.69;4421483;32;20155;-72
2023/01/04 02:30:51;;;;;;;11.60;5.50;;;;;;;3.83;100.00;100046.63;4422418;32;20157;-72
2023/01/04 02:33:46;;;;;;;9.32;5.43;;;;;;;3.83;100.00;100043.16;4408493;32;20145;-73
2023/01/04 02:36:24;;;;;;;10.23;4.68;;;;;;;3.76;100.00;100041.75;4422648;32;20131;-72
2023/01/04 02:39:10;;;;;;;14.10;5.65;;;;;;;3.77;100.00;100043.44;4422337;32;20086;-72
2023/01/04 02:41:43;;;;;;;9.20;4.87;;;;;;;3.70;100.00;100043.69;4422105;32;20077;-72
2023/01/04 02:50:55;;;;;;;11.52;5.12;;;;;;;3.70;100.00;100048.84;4422134;32;20159;-72
2023/01/04 02:53:29;;;;;;;14.75;5.07;;;;;;;3.68;100.00;100040.31;4422053;32;20177;-72
2023/01/04 02:56:16;;;;;;;9.63;5.30;;;;;;;3.70;100.00;100035.91;4408176;32;20136;-72
2023/01/04 02:58:49;;;;;;;12.63;6.00;;;;;;;3.70;100.00;100043.69;4408246;32;20608;-72
2023/01/04 03:07:32;;;;;;;11.10;5.07;;;;;;;3.53;100.00;100035.75;4422059;32;20134;-72
2023/01/04 03:10:24;;;;;;;11.00;5.62;;;;;;;3.57;100.00;100033.87;4431097;32;20093;-72
2023/01/04 03:12:58;;;;;;;13.82;5.30;;;;;;;3.42;100.00;100038.75;4423192;32;20872;-73
2023/01/04 03:15:29;;;;;;;10.95;5.55;;;;;;;3.31;100.00;100035.75;4423260;32;20092;-73
2023/01/04 03:18:00;;;;;;;11.02;5.60;;;;;;;3.28;100.00;100039.28;4437317;32;20097;-73
2023/01/04 03:20:29;;;;;;;10.32;5.50;;;;;;;3.30;100.00;100034.03;4423279;32;20127;-72
2023/01/04 03:37:43;;;;;;;9.88;5.10;;;;;;;3.31;100.00;100028.81;4409974;32;20116;-72
2023/01/04 03:49:25;;;;;;;;;;;;;;;3.29;100.00;100028.03;4423965;32;20796;-72
2023/01/04 03:51:55;;;;;;;9.57;4.68;;;;;;;3.23;100.00;100036.03;4410129;32;20004;-72
2023/01/04 03:54:28;;;;;;;17.42;5.22;;;;;;;3.23;100.00;100032.63;4409944;32;20180;-72
2023/01/04 03:56:55;;;;;;;10.27;4.87;;;;;;;3.17;100.00;100028.50;4409781;32;20089;-73
2023/01/04 03:59:23;;;;;;;15.40;6.05;;;;;;;3.14;100.00;100033.81;4409884;32;20089;-72
2023/01/04 04:01:51;;;;;;;9.85;5.05;;;;;;;3.13;100.00;100032.94;4423905;32;20596;-72
2023/01/04 04:09:51;;;;;;;13.38;5.53;;;;;;;2.93;100.00;100025.94;4431956;32;20164;-73
2023/01/04 04:12:18;;;;;;;10.90;5.07;;;;;;;2.88;100.00;100030.47;4438970;32;20101;-73
2023/01/04 04:14:45;;;;;;;13.00;5.60;;;;;;;2.86;100.00;100019.28;4438984;32;20103;-73
2023/01/04 04:17:12;;;;;;;9.93;4.87;;;;;;;2.85;100.00;100022.81;4439117;32;20141;-72
2023/01/04 04:19:39;;;;;;;13.00;5.12;;;;;;;2.84;100.00;100028.88;4438835;32;20528;-73
2023/01/04 04:22:06;;;;;;;14.45;5.45;;;;;;;2.74;100.00;100030.09;4428899;32;20102;-72
2023/01/04 04:24:34;;;;;;;9.68;4.55;;;;;;;2.71;100.00;100019.87;4409406;32;20160;-72
2023/01/04 04:27:01;;;;;;;11.23;4.82;;;;;;;2.63;100.00;100025.31;4423336;32;20105;-72
2023/01/04 04:29:28;;;;;;;9.77;4.70;;;;;;;2.73;100.00;100031.03;4423462;32;20139;-72
2023/01/04 04:31:56;;;;;;;11.70;4.55;;;;;;;2.72;100.00;100037.09;4423551;32;20094;-72
2023/01/04 04:34:23;;;;;;;12.30;5.18;;;;;;;2.66;100.00;100038.16;4423472;32;20534;-72
2023/01/04 04:36:50;;;;;;;11.95;5.43;;;;;;;2.64;100.00;100035.62;4423460;32;20101;-72
2023/01/04 04:39:17;;;;;;;9.13;4.90;;;;;;;2.62;100.00;100047.78;4423352;32;20097;-72
2023/01/04 04:41:44;;;;;;;12.80;5.57;;;;;;;2.66;100.00;100044.19;4423606;32;20160;-73
2023/01/04 04:44:19;;;;;;;11.32;4.95;;;;;;;2.60;100.00;100044.37;4423465;32;20155;-72
2023/01/04 04:46:47;;;;;;;11.68;5.65;;;;;;;2.51;100.00;100049.88;4423360;32;20085;-73
2023/01/04 04:49:15;;;;;;;10.50;5.05;;;;;;;2.44;100.00;100051.88;4422842;32;20145;-73
2023/01/04 04:51:43;;;;;;;10.45;5.32;;;;;;;2.33;100.00;100040.19;4423321;32;20153;-73
2023/01/04 04:54:16;;;;;;;10.80;5.57;;;;;;;2.23;100.00;100035.34;4423508;32;20162;-73
2023/01/04 04:56:44;;;;;;;12.95;5.90;;;;;;;2.15;100.00;100032.19;4423217;32;20090;-72
2023/01/04 04:59:11;;;;;;;11.23;5.45;;;;;;;2.07;100.00;100031.59;4423245;32;20463;-73
2023/01/04 05:01:38;;;;;;;11.63;5.32;;;;;;;2.04;100.00;100034.28;4423288;32;20098;-74
2023/01/04 05:04:06;;;;;;;12.20;5.30;;;;;;;2.00;100.00;100025.81;4423229;32;20117;-73
2023/01/04 05:06:33;;;;;;;11.05;4.80;;;;;;;1.90;100.00;100033.00;4409418;32;20528;-73
2023/01/04 05:09:01;;;;;;;11.90;5.50;;;;;;;1.79;100.00;100040.28;4426273;32;20196;-73
2023/01/04 05:14:14;;;;;;;11.93;4.90;;;;;;;1.64;100.00;100041.59;4438550;32;20144;-73
2023/01/04 05:16:41;;;;;;;10.30;5.78;;;;;;;1.58;100.00;100032.31;4438809;32;20567;-73
2023/01/04 05:19:08;;;;;;;11.75;5.60;;;;;;;1.56;100.00;100028.06;4438523;32;20093;-73
2023/01/04 05:21:35;;;;;;;10.13;5.28;;;;;;;1.52;100.00;100032.50;4432001;32;20105;-73
2023/01/04 05:24:03;;;;;;;13.05;5.80;;;;;;;1.56;100.00;100033.25;4423182;32;20081;-73
2023/01/04 05:26:30;;;;;;;12.80;5.80;;;;;;;1.53;100.00;100044.53;4423047;32;20140;-73
2023/01/04 05:28:57;;;;;;;9.77;5.43;;;;;;;1.52;100.00;100054.91;4422988;32;20159;-73
2023/01/04 05:31:24;;;;;;;12.65;5.60;;;;;;;1.46;100.00;100053.34;4423113;32;20086;-73
2023/01/04 05:33:52;;;;;;;10.90;5.95;;;;;;;1.34;100.00;100058.91;4422970;32;20106;-73
2023/01/04 05:36:19;;;;;;;10.50;5.32;;;;;;;1.24;100.00;100059.19;4422843;32;20093;-73
2023/01/04 05:38:46;;;;;;;13.48;6.03;;;;;;;1.17;100.00;100062.84;4422837;32;20113;-73
2023/01/04 05:44:13;;;;;;;15.85;6.50;;;;;;;1.08;100.00;100067.44;4374754;32;20602;-73
2023/01/04 05:46:40;;;;;;;12.57;5.65;;;;;;;0.98;100.00;100062.53;4375184;32;20585;-73
2023/01/04 05:49:07;;;;;;;8.40;4.78;;;;;;;0.93;100.00;100066.97;4374804;32;20125;-73
2023/01/04 05:51:35;;;;;;;10.15;5.32;;;;;;;0.84;100.00;100065.50;4374995;32;20486;-73
2023/01/04 05:54:02;;;;;;;9.95;5.18;;;;;;;0.76;100.00;100067.47;4375057;32;20098;-73
2023/01/04 05:56:29;;;;;;;11.68;5.65;;;;;;;0.73;100.00;100064.09;4374708;32;20110;-73
2023/01/04 05:58:56;;;;;;;9.43;4.68;;;;;;;0.68;100.00;100070.25;4374911;32;20168;-73
2023/01/04 06:01:24;;;;;;;10.30;5.80;;;;;;;0.61;100.00;100061.00;4373683;32;20103;-74
2023/01/04 06:03:51;;;;;;;10.15;5.12;;;;;;;0.59;100.00;100059.34;4374873;32;20503;-73
2023/01/04 06:06:19;;;;;;;12.52;6.03;;;;;;;0.56;100.00;100059.41;4375029;32;20160;-73
2023/01/04 06:08:46;;;;;;;13.15;5.50;;;;;;;0.57;100.00;100053.38;4376359;32;20090;-72
2023/01/04 06:11:13;;;;;;;11.65;5.82;;;;;;;0.52;100.00;100048.34;4389848;32;20114;-73
2023/01/04 06:13:40;;;;;;;12.05;5.82;;;;;;;0.50;100.00;100053.56;4389880;32;20106;-73
2023/01/04 06:16:07;;;;;;;13.27;6.43;;;;;;;0.64;100.00;100067.81;4389788;32;20110;-73
2023/01/04 06:18:35;;;;;;;15.18;6.45;;;;;;;0.72;100.00;100065.84;4389788;32;20155;-73
2023/01/04 06:21:02;;;;;;;10.40;5.37;;;;;;;0.72;100.00;100071.00;4433592;32;20110;-73
2023/01/04 06:23:29;;;;;;;17.60;7.28;;;;;;;0.69;100.00;100081.41;4408349;32;20204;-73
2023/01/04 06:25:56;;;;;;;18.08;7.15;;;;;;;0.65;100.00;100085.81;4422099;32;20158;-73
2023/01/04 06:28:23;;;;;;;15.65;7.18;;;;;;;0.69;100.00;100086.56;4422380;32;20094;-74
2023/01/04 06:30:50;;;;;;;17.17;6.95;;;;;;;0.69;100.00;100087.41;4422383;32;20172;-73
2023/01/04 06:33:18;;;;;;;15.88;7.57;;;;;;;0.73;100.00;100082.16;4422736;32;20098;-74
2023/01/04 06:35:53;;;;;;;17.95;7.37;;;;;;;0.78;100.00;100077.75;4422345;32;20612;-74
2023/01/04 06:38:21;;;;;;;19.77;7.93;;;;;;;0.79;100.00;100071.66;4422378;32;20177;-73
2023/01/04 06:40:48;;;;;;;24.27;8.95;;;;;;;0.93;100.00;100076.47;4422214;32;20116;-73
2023/01/04 06:43:15;;;;;;;20.35;9.45;;;;;;;1.03;100.00;100076.16;4422504;32;20102;-73
2023/01/04 06:45:42;;;;;;;19.58;9.18;;;;;;;1.06;100.00;100080.38;4422025;32;20152;-72
2023/01/04 06:48:09;;;;;;;19.27;8.75;;;;;;;1.21;100.00;100077.34;4422395;32;20537;-73
2023/01/04 06:50:44;;;;;;;23.33;9.50;;;;;;;1.32;100.00;100081.34;4422328;32;20166;-73
2023/01/04 06:53:11;;;;;;;17.52;8.45;;;;;;;1.22;100.00;100085.94;4422021;32;20544;-73
2023/01/04 06:55:38;;;;;;;16.15;7.90;;;;;;;1.17;100.00;100077.50;4421742;32;20115;-74
2023/01/04 06:58:06;;;;;;;19.70;9.10;;;;;;;1.19;100.00;100084.28;4422044;32;20166;-74
2023/01/04 07:00:33;;;;;;;18.70;9.35;;;;;;;1.30;100.00;100072.78;4421775;32;20447;-74
2023/01/04 07:03:00;;;;;;;24.63;11.05;;;;;;;1.53;100.00;100067.78;4421982;32;20108;-73
2023/01/04 07:05:42;;;;;;;24.37;10.57;;;;;;;1.68;100.00;100078.50;4421949;32;20153;-74
2023/01/04 07:08:10;;;;;;;24.00;11.48;;;;;;;1.85;100.00;100086.59;4421985;32;20550;-74
2023/01/04 07:10:37;;;;;;;24.52;11.45;;;;;;;2.04;100.00;100088.56;4434745;32;20164;-74
2023/01/04 07:13:07;;;;;;;20.42;9.38;;;;;;;2.11;100.00;100090.88;4437888;32;20110;-74
2023/01/04 07:15:34;;;;;;;19.23;9.68;;;;;;;2.18;100.00;100099.31;4438948;32;20088;-74
2023/01/04 07:18:07;;;;;;;17.42;8.93;;;;;;;2.25;100.00;100103.34;4439257;32;20169;-76
2023/01/04 07:20:38;;;;;;;20.20;10.02;;;;;;;2.30;100.00;100104.06;4439154;32;20435;-75
2023/01/04 07:23:06;;;;;;;22.98;9.50;;;;;;;2.42;100.00;100101.94;4423720;32;20117;-75
2023/01/04 07:25:33;;;;;;;22.55;8.23;;;;;;;2.57;100.00;100101.41;4423520;32;20648;-74
2023/01/04 07:28:00;;;;;;;19.27;8.10;;;;;;;2.80;100.00;100092.00;4423737;32;20102;-75
2023/01/04 07:30:27;;;;;;;21.67;8.55;;;;;;;2.93;100.00;100089.81;4423957;32;20149;-73
2023/01/04 07:32:55;;;;;;;20.15;8.75;;;;;;;2.97;100.00;100088.81;4423900;32;20216;-74
2023/01/04 07:35:23;;;;;;;20.77;9.25;;;;;;;3.11;100.00;100088.28;4423819;32;20515;-74
2023/01/04 07:37:50;;;;;;;19.42;7.22;;;;;;;3.19;100.00;100088.84;4423970;32;20098;-75
2023/01/04 07:40:25;;;;;;;17.27;8.50;;;;;;;3.10;100.00;100089.19;4423997;32;20164;-74
2023/01/04 07:42:55;;;;;;;18.20;8.13;;;;;;;3.10;100.00;100084.00;4423810;32;20081;-74
2023/01/04 07:45:23;;;;;;;16.23;7.97;;;;;;;3.12;100.00;100088.25;4423743;32;20089;-74
2023/01/04 07:47:50;;;;;;;17.35;8.32;;;;;;;3.23;100.00;100095.59;4423753;32;20126;-75
2023/01/04 07:50:17;;;;;;;16.52;7.60;;;;;;;3.43;100.00;100091.41;4423639;32;20094;-74
2023/01/04 07:52:44;;;;;;;18.80;8.82;;;;;;;3.55;100.00;100090.94;4423527;32;20120;-76
2023/01/04 07:55:11;;;;;;;16.62;7.97;;;;;;;3.75;100.00;100100.50;4423479;32;20120;-74
2023/01/04 07:57:38;;;;;;;14.40;6.97;;;;;;;3.80;100.00;100095.13;4423567;32;20169;-74
2023/01/04 08:00:06;;;;;;;18.20;8.23;;;;;;;3.99;100.00;100096.09;4423580;32;20112;-73
2023/01/04 08:02:37;;;;;;;15.75;7.40;;;;;;;4.15;100.00;100093.72;4423654;32;20131;-75
2023/01/04 08:05:05;;;;;;;13.68;7.40;;;;;;;4.35;100.00;100099.84;4423604;32;20116;-74
2023/01/04 08:07:32;;;;;;;12.80;6.10;;;;;;;4.50;100.00;100106.13;4423502;32;20102;-74
2023/01/04 08:10:00;;;;;;;12.52;6.03;;;;;;;4.67;100.00;100103.62;4433085;32;20120;-74
2023/01/04 08:12:27;;;;;;;11.07;5.53;;;;;;;4.79;100.00;100097.91;4438867;32;20155;-75
2023/01/04 08:14:54;;;;;;;11.07;5.37;;;;;;;4.98;100.00;100091.87;4438940;32;20105;-74
2023/01/04 08:17:21;;;;;;;9.57;4.90;;;;;;;5.14;100.00;100087.69;4438995;32;20108;-76
2023/01/04 08:19:49;;;;;;;12.32;5.18;;;;;;;5.30;100.00;100092.22;4438961;32;20136;-76
2023/01/04 08:22:16;;;;;;;8.73;4.62;;;;;;;5.40;100.00;100085.63;4428075;32;20156;-76
2023/01/04 08:24:43;;;;;;;11.45;4.78;;;;;;;5.49;100.00;100085.22;4422505;32;20487;-74
2023/01/04 08:27:10;;;;;;;17.87;4.45;;;;;;;5.65;100.00;100084.50;4423351;32;20208;-74
2023/01/04 08:29:37;;;;;;;10.30;4.53;;;;;;;5.74;100.00;100078.88;4423259;32;20157;-73
2023/01/04 08:32:05;;;;;;;8.23;4.82;;;;;;;5.91;100.00;100077.22;4423473;32;20120;-74
2023/01/04 08:34:32;;;;;;;8.80;4.95;;;;;;;6.02;100.00;100074.94;4423412;32;20124;-73
2023/01/04 08:36:59;;;;;;;10.07;4.40;;;;;;;6.08;100.00;100069.44;4423347;32;20447;-73
2023/01/04 08:39:28;;;;;;;14.02;4.75;;;;;;;6.29;100.00;100080.53;4423364;32;20113;-74
2023/01/04 08:41:55;;;;;;;6.93;2.97;;;;;;;6.31;100.00;100078.66;4423190;32;20097;-73
2023/01/04 08:44:27;;;;;;;4.47;2.70;;;;;;;6.49;100.00;100087.31;4423456;32;20077;-75
2023/01/04 08:46:54;;;;;;;9.48;4.22;;;;;;;6.61;100.00;100088.44;4423351;32;20082;-74
2023/01/04 08:49:23;;;;;;;6.45;3.53;;;;;;;6.75;100.00;100090.34;4423253;32;20128;-74
2023/01/04 08:51:50;;;;;;;5.45;3.60;;;;;;;6.90;100.00;100078.28;4423420;32;20399;-74
2023/01/04 08:54:18;;;;;;;8.05;4.53;;;;;;;6.93;100.00;100078.97;4423290;32;20166;-74
2023/01/04 08:56:45;;;;;;;9.90;3.37;;;;;;;6.93;100.00;100073.75;4409230;32;20093;-74
2023/01/04 08:59:13;;;;;;;6.50;3.15;;;;;;;6.96;100.00;100080.53;4423345;32;20090;-74
2023/01/04 09:01:40;;;;;;;6.87;3.53;;;;;;;7.14;100.00;100085.72;4423496;32;20086;-74
2023/01/04 09:04:08;;;;;;;6.85;3.45;;;;;;;7.20;100.00;100085.38;4423358;32;20386;-74
2023/01/04 09:06:36;;;;;;;6.75;3.30;;;;;;;7.29;100.00;100097.91;4423369;32;20116;-74
2023/01/04 09:09:04;;;;;;;6.32;3.25;;;;;;;7.42;100.00;100091.09;4426590;32;20509;-74
2023/01/04 09:11:31;;;;;;;6.75;3.53;;;;;;;7.44;100.00;100088.41;4438498;32;20185;-75
2023/01/04 09:13:59;;;;;;;5.68;2.72;;;;;;;7.58;100.00;100090.25;4438617;32;20157;-74
2023/01/04 09:16:35;;;;;;;4.65;2.72;;;;;;;7.57;100.00;100089.41;4438682;32;20089;-75
2023/01/04 09:19:03;;;;;;;6.55;3.47;;;;;;;7.66;100.00;100088.06;4438349;32;20607;-74
2023/01/04 09:21:31;;;;;;;12.37;7.25;;;;;;;7.70;100.00;100088.72;4432594;32;20148;-74
2023/01/04 09:23:58;;;;;;;15.18;7.20;;;;;;;7.83;100.00;100087.13;4423253;32;20089;-73
2023/01/04 09:26:25;;;;;;;13.30;7.40;;;;;;;7.60;100.00;100091.00;4422980;32;20137;-74
2023/01/04 09:28:54;;;;;;;17.23;8.27;;;;;;;7.27;100.00;100087.56;4423084;32;20435;-74
2023/01/04 09:31:24;;;;;;;17.10;8.90;;;;;;;7.15;100.00;100087.41;4423129;32;20124;-74
2023/01/04 09:33:51;;;;;;;14.05;7.60;;;;;;;7.19;100.00;100073.25;4423092;32;20111;-73
2023/01/04 09:36:39;;;;;;;15.82;6.87;;;;;;;7.10;100.00;100066.78;4422853;32;20090;-73
2023/01/04 09:39:06;;;;;;;13.98;6.53;;;;;;;7.02;100.00;100061.16;4423214;32;20098;-73
2023/01/04 09:42:06;;;;;;;18.05;7.95;;;;;;;7.03;100.00;100073.25;4423042;32;20540;-73
2023/01/04 09:44:49;;;;;;;15.77;7.57;;;;;;;7.01;100.00;100073.34;4375240;32;20165;-73
2023/01/04 09:47:44;;;;;;;15.50;8.20;;;;;;;6.93;100.00;100058.13;4374828;32;20129;-73
2023/01/04 09:50:14;;;;;;;17.33;8.23;;;;;;;6.95;100.00;100054.56;4375150;32;20114;-73
2023/01/04 09:52:50;;;;;;;13.75;7.47;;;;;;;6.84;100.00;100047.34;4375031;32;20859;-73
2023/01/04 09:55:46;;;;;;;15.10;8.02;;;;;;;6.74;100.00;100055.66;4375246;32;20110;-73
2023/01/04 09:58:30;;;;;;;16.17;8.57;;;;;;;6.68;100.00;100049.94;4374140;32;20087;-73
2023/01/04 10:01:04;;;;;;;15.90;8.27;;;;;;;6.52;100.00;100048.09;4375224;32;20194;-73
2023/01/04 10:03:34;;;;;;;16.73;7.93;;;;;;;6.38;100.00;100045.38;4374926;32;20151;-73
2023/01/04 10:06:02;;;;;;;15.77;9.18;;;;;;;6.43;100.00;100048.56;4375125;32;20095;-73
2023/01/04 10:08:32;;;;;;;21.10;9.40;;;;;;;6.57;100.00;100051.31;4374834;32;20106;-73
2023/01/04 10:11:21;;;;;;;15.98;8.32;;;;;;;6.51;100.00;100046.44;4375318;32;20190;-73
2023/01/04 10:13:55;;;;;;;17.87;8.88;;;;;;;6.48;100.00;100041.41;4374859;32;20103;-73
2023/01/04 10:16:44;;;;;;;16.87;8.50;;;;;;;6.57;100.00;100034.84;4374924;32;20174;-74
2023/01/04 10:20:03;;;;;;;16.83;8.73;;;;;;;6.55;100.00;100021.91;4364507;32;20502;-73
2023/01/04 10:23:00;;;;;;;19.37;8.18;;;;;;;6.42;100.00;100025.22;4419707;32;20444;-73
2023/01/04 10:25:57;;;;;;;16.83;8.05;;;;;;;6.50;100.00;100013.50;4420901;32;20141;-73
2023/01/04 10:28:45;;;;;;;19.40;9.00;;;;;;;6.61;100.00;100019.91;4421216;32;20506;-73
2023/01/04 10:31:19;;;;;;;16.48;9.13;;;;;;;6.61;100.00;100017.31;4408485;32;20499;-73
2023/01/04 10:34:24;;;;;;;15.15;7.68;;;;;;;6.84;100.00;100016.09;4421662;32;20149;-74
2023/01/04 10:36:56;;;;;;;13.70;6.90;;;;;;;6.95;100.00;100015.50;4422604;32;20116;-74
2023/01/04 10:39:26;;;;;;;10.95;6.87;;;;;;;7.06;100.00;100015.78;4408544;32;20193;-74
2023/01/04 10:42:09;;;;;;;13.93;7.10;;;;;;;7.23;100.00;100020.88;4422133;32;20147;-75
2023/01/04 10:45:01;;;;;;;12.80;6.95;;;;;;;7.37;100.00;100008.84;4422205;32;20113;-73
2023/01/04 10:47:54;;;;;;;11.68;6.10;;;;;;;7.49;100.00;100008.16;4422492;32;20089;-74
2023/01/04 10:50:28;;;;;;;9.35;4.90;;;;;;;7.72;100.00;100008.62;4424124;32;20613;-74
2023/01/04 10:53:17;;;;;;;9.52;4.87;;;;;;;7.82;100.00;99999.34;4424137;32;20085;-74
2023/01/04 10:55:50;;;;;;;8.15;4.60;;;;;;;7.93;100.00;99996.97;4422777;32;20152;-74
2023/01/04 10:58:45;;;;;;;6.05;3.97;;;;;;;7.92;100.00;99989.22;4424042;32;20145;-74
2023/01/04 11:01:22;;;;;;;7.60;4.07;;;;;;;8.01;100.00;99983.47;4424021;32;20085;-76
2023/01/04 11:03:58;;;;;;;4.65;2.67;;;;;;;8.11;100.00;99968.06;4422895;32;20073;-77
2023/01/04 11:06:29;;;;;;;4.35;2.65;;;;;;;8.27;100.00;99968.84;4410090;32;20165;-75
2023/01/04 11:09:11;;;;;;;3.15;1.65;;;;;;;8.33;100.00;99963.25;4424020;32;20154;-74
2023/01/04 11:11:42;;;;;;;4.95;2.17;;;;;;;8.48;100.00;99958.06;4423936;32;20089;-74
2023/01/04 11:14:10;;;;;;;3.35;2.17;;;;;;;8.55;100.00;99956.72;4410222;32;20082;-74
2023/01/04 11:16:40;;;;;;;3.58;2.10;;;;;;;8.62;100.00;99951.97;4410095;32;20121;-75
2023/01/04 11:19:08;;;;;;;3.45;1.58;;;;;;;8.69;97.93;99951.50;4424137;32;20101;-75
2023/01/04 11:21:40;;;;;;;3.85;1.70;;;;;;;8.76;96.13;99948.50;4413380;32;20109;-76
2023/01/04 11:24:08;;;;;;;2.47;1.50;;;;;;;8.85;94.74;99937.47;4422620;32;20102;-75
2023/01/04 11:26:57;;;;;;;3.30;1.52;;;;;;;8.94;94.22;99941.28;4423798;32;20509;-75
2023/01/04 11:29:40;;;;;;;1.45;1.00;;;;;;;8.92;91.05;99936.16;4422626;32;20128;-76
2023/01/04 11:32:16;;;;;;;4.85;2.28;;;;;;;8.93;87.05;99929.97;4423945;32;20200;-75
2023/01/04 11:34:51;;;;;;;2.83;1.70;;;;;;;9.01;89.66;99919.88;4423864;32;20089;-75
2023/01/04 11:37:28;;;;;;;2.22;1.25;;;;;;;9.02;91.62;99916.34;4423714;32;20529;-76
2023/01/04 11:40:21;;;;;;;1.92;1.20;;;;;;;9.16;88.58;99919.81;4423822;32;20435;-76
2023/01/04 11:43:09;;;;;;;2.13;1.27;;;;;;;9.06;89.21;99915.19;4424019;32;20147;-76
2023/01/04 11:45:36;;;;;;;2.20;1.27;;;;;;;9.02;88.02;99921.56;4423778;32;20107;-75
2023/01/04 11:48:05;;;;;;;3.50;1.58;;;;;;;9.02;88.20;99918.94;4423990;32;20098;-75
2023/01/04 11:50:50;;;;;;;4.32;1.98;;;;;;;9.09;86.54;99913.31;4423852;32;20094;-76
2023/01/04 11:53:25;;;;;;;4.82;2.33;;;;;;;9.08;89.62;99912.47;4422456;32;20156;-76
2023/01/04 11:56:18;;;;;;;3.97;2.60;;;;;;;8.95;91.60;99907.19;4423582;32;20493;-76
2023/01/04 11:59:05;;;;;;;3.50;2.40;;;;;;;8.92;92.10;99909.16;4423236;32;20098;-76
2023/01/04 12:01:35;;;;;;;3.78;2.05;;;;;;;8.84;90.53;99909.66;4423663;32;20086;-76
2023/01/04 12:04:25;;;;;;;3.35;2.00;;;;;;;8.78;88.82;99907.44;4423584;32;20107;-77
2023/01/04 12:06:56;;;;;;;4.05;2.22;;;;;;;8.90;90.32;99909.25;4423852;32;20375;-76
2023/01/04 12:09:30;;;;;;;2.95;1.73;;;;;;;8.96;92.19;99902.81;4423589;32;20094;-76
2023/01/04 12:11:59;;;;;;;6.30;2.67;;;;;;;8.87;89.95;99906.84;4423896;32;20144;-76
2023/01/04 12:14:27;;;;;;;7.05;3.80;;;;;;;8.86;91.63;99898.16;4422292;32;20090;-76
2023/01/04 12:17:04;;;;;;;6.55;3.10;;;;;;;8.70;96.26;99902.69;4422445;32;20597;-76
2023/01/04 12:19:32;;;;;;;4.43;3.15;;;;;;;8.86;96.39;99905.19;4423512;32;20170;-76
2023/01/04 12:22:02;;;;;;;17.95;9.05;;;;;;;8.79;98.01;99904.72;4432370;32;20121;-76
2023/01/04 12:24:33;;;;;;;10.80;5.03;;;;;;;8.84;100.00;99893.97;4424561;32;20109;-75
2023/01/04 12:27:00;;;;;;;8.00;5.05;;;;;;;8.64;100.00;99888.25;4424907;32;20081;-76
2023/01/04 12:29:38;;;;;;;11.18;5.90;;;;;;;8.66;100.00;99891.59;4439007;32;20117;-76
2023/01/04 12:32:05;;;;;;;7.45;4.78;;;;;;;8.75;100.00;99884.09;4425065;32;20101;-75
2023/01/04 12:34:33;;;;;;;11.55;6.43;;;;;;;8.60;100.00;99881.56;4438809;32;20126;-76